createdAt,value
2022-11-08T00:00:25.099Z,7
2022-11-08T00:05:25.102Z,9.9
2022-11-08T00:10:25.110Z,11.9
2022-11-08T00:15:25.099Z,9.6
2022-11-08T00:20:25.111Z,10.2
2022-11-08T00:25:25.103Z,10.1
2022-11-08T00:30:25.108Z,4.2
2022-11-08T00:35:25.107Z,0
2022-11-08T00:40:25.114Z,0
2022-11-08T00:45:25.100Z,0
2022-11-08T00:50:25.107Z,0
2022-11-08T00:55:25.106Z,0
2022-11-08T01:00:25.110Z,0
2022-11-08T01:05:25.114Z,0
2022-11-08T01:10:25.130Z,7.2
2022-11-08T01:15:25.171Z,8.4
2022-11-08T01:20:25.094Z,9.1
2022-11-08T01:25:25.118Z,7.6
2022-11-08T01:30:25.119Z,7.8
2022-11-08T01:35:25.107Z,7.2
2022-11-08T01:40:25.117Z,0
2022-11-08T01:45:25.108Z,0
2022-11-08T01:50:25.101Z,0
2022-11-08T01:55:25.095Z,0
2022-11-08T02:00:25.103Z,4
2022-11-08T02:05:25.270Z,4
2022-11-08T02:10:25.095Z,7.3
2022-11-08T02:15:25.101Z,8
2022-11-08T02:20:25.105Z,8
2022-11-08T02:25:25.106Z,6.1
2022-11-08T02:30:25.111Z,6.1
2022-11-08T02:35:25.104Z,7.2
2022-11-08T02:40:25.112Z,7.8
2022-11-08T02:45:25.096Z,5.6
2022-11-08T02:50:25.112Z,7.8
2022-11-08T02:55:25.087Z,9.1
2022-11-08T03:00:25.095Z,8.7
2022-11-08T03:05:25.099Z,8.7
2022-11-08T03:10:25.103Z,8.2
2022-11-08T03:15:25.097Z,8.6
2022-11-08T03:20:28.355Z,8.4
2022-11-08T03:25:25.102Z,8
2022-11-08T03:30:25.122Z,7.9
2022-11-08T03:35:25.095Z,9.7
2022-11-08T03:40:25.118Z,8.3
2022-11-08T03:45:25.113Z,8.1
2022-11-08T03:50:25.128Z,9.4
2022-11-08T03:55:25.112Z,9
2022-11-08T04:00:25.114Z,8.2
2022-11-08T04:05:25.112Z,8.2
2022-11-08T04:10:25.103Z,5.8
2022-11-08T04:15:25.093Z,0
2022-11-08T04:20:25.105Z,4.1
2022-11-08T04:25:25.100Z,0
2022-11-08T04:30:25.111Z,4.9
2022-11-08T04:35:25.110Z,0
2022-11-08T04:40:25.104Z,0
2022-11-08T04:45:25.101Z,0
2022-11-08T04:50:25.096Z,5.8
2022-11-08T04:55:25.101Z,5.7
2022-11-08T05:00:25.104Z,5.1
2022-11-08T05:05:25.102Z,0
2022-11-08T05:10:25.101Z,0
2022-11-08T05:15:25.102Z,0
2022-11-08T05:20:25.102Z,5.7
2022-11-08T05:25:25.097Z,6.1
2022-11-08T05:30:25.109Z,5.6
2022-11-08T05:35:25.093Z,5.6
2022-11-08T05:40:28.230Z,6.1
2022-11-08T05:45:25.099Z,6.1
2022-11-08T05:50:25.109Z,5.8
2022-11-08T05:55:25.111Z,6.7
2022-11-08T06:00:25.102Z,7.3
2022-11-08T06:05:25.106Z,0
2022-11-08T06:10:25.110Z,0
2022-11-08T06:15:25.095Z,0
2022-11-08T06:20:25.126Z,4.6
2022-11-08T06:25:25.114Z,4.6
2022-11-08T06:30:25.127Z,0
2022-11-08T06:35:25.099Z,0
2022-11-08T06:40:25.114Z,0
2022-11-08T06:45:25.108Z,0
2022-11-08T06:50:25.099Z,0
2022-11-08T06:55:25.100Z,4.3
2022-11-08T07:00:25.115Z,0
2022-11-08T07:05:25.113Z,0
2022-11-08T07:10:25.111Z,0
2022-11-08T07:15:25.109Z,0
2022-11-08T07:20:25.105Z,0
2022-11-08T07:25:25.286Z,4
2022-11-08T07:30:25.115Z,0
2022-11-08T07:35:25.105Z,0
2022-11-08T07:40:25.132Z,0
2022-11-08T07:45:25.117Z,0
2022-11-08T07:50:25.114Z,0
2022-11-08T07:55:25.109Z,0
2022-11-08T08:00:25.109Z,0
2022-11-08T08:05:25.110Z,0
2022-11-08T08:10:25.097Z,4
2022-11-08T08:15:25.099Z,0
2022-11-08T08:20:25.103Z,0
2022-11-08T08:25:25.109Z,0
2022-11-08T08:30:25.109Z,0
2022-11-08T08:35:25.120Z,0
2022-11-08T08:40:25.102Z,0
2022-11-08T08:45:25.097Z,4.4
2022-11-08T08:50:25.173Z,4.4
2022-11-08T08:55:25.102Z,0
2022-11-08T09:05:25.096Z,0
2022-11-08T09:10:25.105Z,0
2022-11-08T09:15:25.097Z,6.2
2022-11-08T09:20:25.112Z,4.5
2022-11-08T09:25:25.104Z,0
2022-11-08T09:30:25.124Z,0
2022-11-08T09:35:25.096Z,0
2022-11-08T09:40:25.108Z,0
2022-11-08T09:45:25.106Z,0
2022-11-08T09:50:25.104Z,0
2022-11-08T09:55:25.099Z,0
2022-11-08T10:00:25.105Z,4
2022-11-08T10:05:25.100Z,4
2022-11-08T10:10:25.109Z,6.1
2022-11-08T10:15:25.114Z,5.4
2022-11-08T10:20:25.174Z,6.2
2022-11-08T10:25:25.129Z,7.1
2022-11-08T10:30:25.106Z,10.2
2022-11-08T10:35:25.098Z,8.6
2022-11-08T10:40:25.125Z,6.9
2022-11-08T10:45:25.106Z,7.7
2022-11-08T10:50:25.102Z,7.1
2022-11-08T10:55:25.118Z,0
2022-11-08T11:00:25.105Z,0
2022-11-08T11:05:25.100Z,0
2022-11-08T11:10:25.108Z,4
2022-11-08T11:15:25.101Z,9.8
2022-11-08T11:20:25.113Z,7.6
2022-11-08T11:25:25.105Z,9
2022-11-08T11:30:25.104Z,13.2
2022-11-08T11:35:25.105Z,15.7
2022-11-08T11:40:25.118Z,16.1
2022-11-08T11:45:25.097Z,20.8
2022-11-08T11:50:25.115Z,20.3
2022-11-08T11:55:25.109Z,21.3
2022-11-08T12:00:25.114Z,16.8
2022-11-08T12:05:25.119Z,18.8
2022-11-08T12:10:25.117Z,18.1
2022-11-08T12:15:25.117Z,18.1
2022-11-08T12:20:27.250Z,20
2022-11-08T12:25:25.109Z,20.2
2022-11-08T12:30:25.109Z,18.3
2022-11-08T12:35:25.094Z,16.4
2022-11-08T12:40:25.105Z,16.2
2022-11-08T12:45:25.107Z,15.8
2022-11-08T12:50:25.118Z,16
2022-11-08T12:55:25.105Z,17.1
2022-11-08T13:00:25.103Z,17.1
2022-11-08T13:05:25.104Z,21.6
2022-11-08T13:10:25.117Z,19.3
2022-11-08T13:15:25.127Z,20.6
2022-11-08T13:20:25.109Z,20.6
2022-11-08T13:25:25.119Z,16.3
2022-11-08T13:30:25.106Z,14.6
2022-11-08T13:35:25.091Z,13.3
2022-11-08T13:40:25.101Z,16.4
2022-11-08T13:45:25.098Z,16.4
2022-11-08T13:50:25.106Z,17.4
2022-11-08T13:55:25.096Z,19.3
2022-11-08T14:00:25.097Z,19.3
2022-11-08T14:05:25.098Z,19.2
2022-11-08T14:10:25.108Z,14.9
2022-11-08T14:15:25.113Z,13.2
2022-11-08T14:20:25.102Z,11.6
2022-11-08T14:25:25.109Z,10
2022-11-08T14:30:25.110Z,10.5
2022-11-08T14:35:25.102Z,11.4
2022-11-08T14:40:25.117Z,10.9
2022-11-08T14:45:26.140Z,10.1
2022-11-08T14:50:25.097Z,9.3
2022-11-08T14:55:25.098Z,8.1
2022-11-08T15:00:25.099Z,8.3
2022-11-08T15:05:25.103Z,8.3
2022-11-08T15:10:25.111Z,7.6
2022-11-08T15:15:25.125Z,6.3
2022-11-08T15:20:25.101Z,0
2022-11-08T15:25:25.113Z,0
2022-11-08T15:30:25.106Z,4.7
2022-11-08T15:35:25.109Z,5.7
2022-11-08T15:40:25.103Z,7.6
2022-11-08T15:45:25.104Z,8.2
2022-11-08T15:50:25.102Z,8.9
2022-11-08T15:55:25.110Z,9.9
2022-11-08T16:00:25.107Z,11.7
2022-11-08T16:05:25.106Z,11.9
2022-11-08T16:10:25.097Z,12.1
2022-11-08T16:15:25.112Z,12.5
2022-11-08T16:20:25.096Z,11.8
2022-11-08T16:25:25.112Z,11.9
2022-11-08T16:30:25.103Z,10.3
2022-11-08T16:35:25.109Z,10.8
2022-11-08T16:40:25.110Z,9
2022-11-08T16:45:43.692Z,10.4
2022-11-08T16:50:25.115Z,9.3
2022-11-08T16:55:25.112Z,9.1
2022-11-08T17:00:25.099Z,8.7
2022-11-08T17:05:25.104Z,10.2
2022-11-08T17:10:25.109Z,10.9
2022-11-08T17:15:25.100Z,9
2022-11-08T17:20:25.088Z,9
2022-11-08T17:25:25.109Z,11.3
2022-11-08T17:30:26.816Z,7.5
2022-11-08T17:35:25.103Z,11.6
2022-11-08T17:40:25.101Z,8.2
2022-11-08T17:45:25.110Z,10.2
2022-11-08T17:50:25.105Z,11.9
2022-11-08T17:55:25.099Z,11.8
2022-11-08T18:00:25.141Z,10.9
2022-11-08T18:05:25.108Z,11.2
2022-11-08T18:10:25.100Z,10
2022-11-08T18:15:25.102Z,11.8
2022-11-08T18:20:25.094Z,10.6
2022-11-08T18:25:25.111Z,10.5
2022-11-08T18:30:25.103Z,10.1
2022-11-08T18:35:25.096Z,9.7
2022-11-08T18:40:25.107Z,7.8
2022-11-08T18:45:25.105Z,7.8
2022-11-08T18:50:25.097Z,8.7
2022-11-08T18:55:25.103Z,8.7
2022-11-08T19:00:25.093Z,9.9
2022-11-08T19:05:25.117Z,9.7
2022-11-08T19:10:25.110Z,10.3
2022-11-08T19:15:25.103Z,11.8
2022-11-08T19:20:25.094Z,11.9
2022-11-08T19:25:25.098Z,9.3
2022-11-08T19:30:25.116Z,10.7
2022-11-08T19:35:25.104Z,10.5
2022-11-08T19:40:29.376Z,13.2
2022-11-08T19:45:25.109Z,12.1
2022-11-08T19:50:25.099Z,11.8
2022-11-08T19:55:25.111Z,10.3
2022-11-08T20:00:25.096Z,10
2022-11-08T20:05:25.110Z,11.8
2022-11-08T20:10:25.097Z,11.8
2022-11-08T20:15:25.102Z,11.5
2022-11-08T20:20:25.095Z,12.9
2022-11-08T20:25:25.103Z,13.7
2022-11-08T20:30:25.090Z,10.2
2022-11-08T20:35:25.093Z,11.1
2022-11-08T20:40:25.100Z,11.1
2022-11-08T20:45:25.110Z,10.6
2022-11-08T20:50:25.104Z,9.9
2022-11-08T20:55:25.097Z,10.6
2022-11-08T21:00:44.404Z,11
2022-11-08T21:05:25.104Z,9.4
2022-11-08T21:10:41.923Z,9.8
2022-11-08T21:15:27.104Z,9
2022-11-08T21:20:25.106Z,9.2
2022-11-08T21:25:25.108Z,11
2022-11-08T21:30:25.107Z,11.3
2022-11-08T21:35:25.114Z,12.1
2022-11-08T21:40:25.100Z,12.3
2022-11-08T21:45:25.118Z,12.7
2022-11-08T21:50:25.104Z,10.7
2022-11-08T21:55:25.119Z,10.8
2022-11-08T22:00:25.105Z,14.4
2022-11-08T22:05:25.101Z,12.1
2022-11-08T22:10:25.102Z,11
2022-11-08T22:15:25.108Z,11.3
2022-11-08T22:20:25.094Z,9.8
2022-11-08T22:25:25.101Z,10.9
2022-11-08T22:30:25.095Z,10.6
2022-11-08T22:35:25.117Z,10.1
2022-11-08T22:40:25.095Z,11.4
2022-11-08T22:45:25.099Z,12
2022-11-08T22:50:25.117Z,11.7
2022-11-08T22:55:25.117Z,9.4
2022-11-08T23:00:25.105Z,9.5
2022-11-08T23:05:25.107Z,9.1
2022-11-08T23:10:25.104Z,9.8
2022-11-08T23:15:25.115Z,10.6
2022-11-08T23:20:25.099Z,10.7
2022-11-08T23:25:25.106Z,11.8
2022-11-08T23:30:25.108Z,10.4
2022-11-08T23:35:25.106Z,10.4
2022-11-08T23:40:25.099Z,9.9
2022-11-08T23:45:25.109Z,12
2022-11-08T23:50:25.096Z,11
2022-11-08T23:55:25.118Z,11.8
